Time;durP1;ratioP1;P1;durP2;ratioP2;P2;SDS_P1;SDS_P2;PMS_P1;PMS_P2;Temp;Humidity;BMP_temperature;BMP_pressure;BME280_temperature;BME280_humidity;BME280_pressure;Samples;Min_cycle;Max_cycle;Signal;HPM_P1;HPM_P2
2022/09/23 00:01:58;;;;;;;2.00;1.90;;;22.20;63.10;;;;;;5093237;28;20436;-85
2022/09/23 00:04:24;;;;;;;1.93;1.83;;;22.30;63.30;;;;;;5093359;28;20443;-84
2022/09/23 00:06:52;;;;;;;2.10;2.00;;;22.20;63.20;;;;;;5093277;28;20438;-84
2022/09/23 00:09:18;;;;;;;1.80;1.70;;;22.20;63.10;;;;;;5093043;28;20443;-84
2022/09/23 00:11:45;;;;;;;1.90;1.80;;;22.20;63.20;;;;;;5093162;28;20454;-84
2022/09/23 00:14:13;;;;;;;2.00;1.90;;;22.20;63.10;;;;;;5096437;28;20480;-84
2022/09/23 00:16:40;;;;;;;1.97;1.87;;;22.20;63.10;;;;;;5097130;28;20447;-83
2022/09/23 00:19:07;;;;;;;1.90;1.70;;;22.20;63.10;;;;;;5105227;28;20455;-84
2022/09/23 00:21:34;;;;;;;2.03;1.93;;;22.20;63.10;;;;;;5117139;28;20441;-83
2022/09/23 00:24:01;;;;;;;2.10;2.00;;;22.20;63.10;;;;;;5116979;28;20462;-84
2022/09/23 00:26:27;;;;;;;2.00;1.90;;;22.20;63.20;;;;;;5117125;28;20435;-84
2022/09/23 00:28:54;;;;;;;1.97;1.77;;;22.20;63.20;;;;;;5117063;28;20442;-84
2022/09/23 00:31:25;;;;;;;1.97;1.87;;;22.20;63.10;;;;;;5116872;28;20435;-83
2022/09/23 00:33:55;;;;;;;1.87;1.73;;;22.20;63.10;;;;;;5117038;28;20483;-85
2022/09/23 00:36:23;;;;;;;1.73;1.63;;;22.20;63.10;;;;;;5117079;28;20435;-84
2022/09/23 00:38:50;;;;;;;1.80;1.70;;;22.20;63.10;;;;;;5116909;28;20922;-83
2022/09/23 00:41:17;;;;;;;1.87;1.77;;;22.20;63.10;;;;;;5116723;28;20938;-84
2022/09/23 00:43:46;;;;;;;1.90;1.80;;;22.20;63.10;;;;;;5116683;28;20436;-84
2022/09/23 00:46:16;;;;;;;2.00;1.90;;;22.30;63.20;;;;;;5116666;28;20443;-85
2022/09/23 00:48:45;;;;;;;1.90;1.80;;;22.20;63.10;;;;;;5116612;28;20434;-83
2022/09/23 00:51:17;;;;;;;1.70;1.60;;;22.20;63.10;;;;;;5116483;28;20492;-84
2022/09/23 00:53:45;;;;;;;1.90;1.80;;;22.20;63.10;;;;;;5116656;28;20512;-84
2022/09/23 00:56:14;;;;;;;2.43;1.90;;;22.20;63.10;;;;;;5116350;28;20434;-83
2022/09/23 00:58:44;;;;;;;1.77;1.67;;;22.20;63.10;;;;;;5116370;28;20447;-83
2022/09/23 01:01:13;;;;;;;2.00;1.90;;;22.40;63.30;;;;;;5116687;28;20918;-83
2022/09/23 01:03:41;;;;;;;1.90;1.80;;;22.20;63.10;;;;;;5116293;28;20487;-83
2022/09/23 01:06:10;;;;;;;1.60;1.50;;;22.30;63.20;;;;;;5116647;28;20448;-83
2022/09/23 01:08:37;;;;;;;2.10;1.90;;;22.20;63.10;;;;;;5116456;28;20451;-84
2022/09/23 01:11:23;;;;;;;1.80;1.70;;;22.20;63.90;;;;;;5116381;28;20447;-83
2022/09/23 01:13:59;;;;;;;1.93;1.83;;;22.20;63.00;;;;;;5116097;28;20523;-83
2022/09/23 01:16:33;;;;;;;2.27;2.10;;;22.20;63.20;;;;;;5116661;28;20532;-84
2022/09/23 01:19:10;;;;;;;2.37;2.17;;;22.20;63.10;;;;;;5115718;28;20465;-84
2022/09/23 01:21:48;;;;;;;2.13;2.03;;;22.20;63.10;;;;;;5116030;28;20446;-84
2022/09/23 01:24:58;;;;;;;1.70;1.60;;;22.20;63.10;;;;;;5115442;28;20805;-85
2022/09/23 01:27:46;;;;;;;1.83;1.73;;;22.20;63.10;;;;;;5116083;28;20438;-84
2022/09/23 01:30:42;;;;;;;1.87;1.77;;;22.20;63.20;;;;;;5115876;28;20438;-84
2022/09/23 01:33:14;;;;;;;2.10;2.00;;;22.20;63.20;;;;;;5115789;28;20450;-83
2022/09/23 01:35:50;;;;;;;2.53;2.33;;;22.10;63.00;;;;;;5115955;28;20474;-83
2022/09/23 01:38:35;;;;;;;2.20;2.10;;;22.10;63.00;;;;;;5115599;28;20533;-83
2022/09/23 01:41:12;;;;;;;1.80;1.70;;;22.20;63.10;;;;;;5115719;28;20447;-84
2022/09/23 01:43:47;;;;;;;1.90;1.80;;;22.10;63.00;;;;;;5115465;28;20499;-84
2022/09/23 01:46:20;;;;;;;1.90;1.80;;;22.10;63.00;;;;;;5115827;28;20439;-84
2022/09/23 01:48:54;;;;;;;1.80;1.70;;;22.20;63.10;;;;;;5115724;28;20443;-84
2022/09/23 01:51:26;;;;;;;1.90;1.80;;;22.20;63.10;;;;;;5115566;28;20434;-84
2022/09/23 01:54:02;;;;;;;1.80;1.70;;;22.20;63.10;;;;;;5115161;28;20999;-84
2022/09/23 01:56:32;;;;;;;1.87;1.77;;;22.10;63.00;;;;;;5115608;28;20438;-84
2022/09/23 01:59:08;;;;;;;2.53;2.33;;;22.10;63.00;;;;;;5115796;28;20466;-84
2022/09/23 02:01:42;;;;;;;1.83;1.73;;;22.20;63.10;;;;;;5115455;28;20922;-83
2022/09/23 02:04:16;;;;;;;2.30;2.10;;;22.20;63.10;;;;;;5115249;28;20475;-84
2022/09/23 02:06:50;;;;;;;1.77;1.67;;;22.10;63.00;;;;;;5115171;28;20439;-83
2022/09/23 02:09:23;;;;;;;2.23;2.13;;;22.10;62.90;;;;;;5115376;28;20439;-84
2022/09/23 02:11:52;;;;;;;2.50;2.40;;;22.10;63.00;;;;;;5114919;28;20442;-83
2022/09/23 02:14:24;;;;;;;1.73;1.63;;;22.10;62.90;;;;;;5114921;28;20483;-84
2022/09/23 02:16:55;;;;;;;1.80;1.70;;;22.10;62.90;;;;;;5115687;28;20759;-83
2022/09/23 02:19:27;;;;;;;2.23;2.10;;;22.20;63.00;;;;;;5114795;28;20469;-84
2022/09/23 02:22:00;;;;;;;2.13;2.03;;;22.10;62.90;;;;;;5114898;28;20442;-83
2022/09/23 02:24:30;;;;;;;1.63;1.53;;;22.10;62.90;;;;;;5114990;28;20443;-84
2022/09/23 02:27:17;;;;;;;2.00;1.90;;;22.10;62.90;;;;;;5114950;28;20445;-84
2022/09/23 02:29:53;;;;;;;2.13;1.97;;;22.10;63.00;;;;;;5114859;28;20442;-85
2022/09/23 02:32:27;;;;;;;1.77;1.67;;;22.10;62.90;;;;;;5114772;28;20433;-85
2022/09/23 02:34:59;;;;;;;1.80;1.70;;;22.10;62.90;;;;;;5114735;28;20483;-84
2022/09/23 02:40:56;;;;;;;1.77;1.67;;;22.20;62.90;;;;;;5115015;28;20410;-84
2022/09/23 02:43:31;;;;;;;2.30;2.20;;;22.10;63.00;;;;;;5114711;28;20449;-83
2022/09/23 02:45:58;;;;;;;2.10;2.00;;;22.10;63.00;;;;;;5114724;28;20457;-84
2022/09/23 02:48:31;;;;;;;1.90;1.80;;;22.10;63.00;;;;;;5114360;28;20439;-84
2022/09/23 02:51:01;;;;;;;2.17;2.07;;;22.10;62.90;;;;;;5114421;28;20431;-84
2022/09/23 02:53:28;;;;;;;1.73;1.63;;;22.10;63.00;;;;;;5114492;28;20455;-84
2022/09/23 02:55:55;;;;;;;2.57;2.37;;;22.10;62.90;;;;;;5114100;28;20483;-84
2022/09/23 02:58:23;;;;;;;2.00;1.90;;;22.10;62.90;;;;;;5114554;28;20481;-85
2022/09/23 03:01:00;;;;;;;1.87;1.77;;;22.10;62.90;;;;;;5114213;28;20441;-85
2022/09/23 03:03:39;;;;;;;1.83;1.73;;;22.10;62.80;;;;;;5114381;28;20442;-84
2022/09/23 03:06:26;;;;;;;2.17;1.80;;;22.20;63.00;;;;;;5115043;28;20431;-85
2022/09/23 03:08:59;;;;;;;2.03;1.93;;;22.10;62.80;;;;;;5114283;28;20447;-85
2022/09/23 03:11:26;;;;;;;2.17;2.03;;;22.10;62.80;;;;;;5114028;28;20447;-84
2022/09/23 03:14:15;;;;;;;1.70;1.60;;;22.10;62.90;;;;;;5114327;28;20439;-85
2022/09/23 03:16:47;;;;;;;1.87;1.77;;;22.10;62.80;;;;;;5114126;28;20538;-83
2022/09/23 03:19:26;;;;;;;2.10;2.00;;;22.10;62.90;;;;;;5113932;28;20565;-83
2022/09/23 03:21:59;;;;;;;1.93;1.80;;;22.10;62.80;;;;;;5114052;28;20477;-85
2022/09/23 03:24:30;;;;;;;2.10;1.90;;;22.10;62.80;;;;;;5113894;28;20454;-86
2022/09/23 03:27:00;;;;;;;1.90;1.80;;;22.10;62.80;;;;;;5114227;28;20435;-85
2022/09/23 03:29:28;;;;;;;1.90;1.80;;;22.10;62.80;;;;;;5113782;28;20771;-84
2022/09/23 03:31:56;;;;;;;1.97;1.87;;;22.10;62.80;;;;;;5113900;28;20949;-84
2022/09/23 03:34:28;;;;;;;1.83;1.73;;;22.10;62.80;;;;;;5113778;28;20482;-84
2022/09/23 03:37:00;;;;;;;1.97;1.87;;;22.10;62.80;;;;;;5113884;28;20507;-84
2022/09/23 03:39:33;;;;;;;1.70;1.60;;;22.10;62.80;;;;;;5113910;28;20439;-84
2022/09/23 03:42:03;;;;;;;1.97;1.80;;;22.10;62.80;;;;;;5113829;28;20442;-84
2022/09/23 03:44:36;;;;;;;1.83;1.73;;;22.10;62.80;;;;;;5113720;28;20854;-84
2022/09/23 03:47:03;;;;;;;1.90;1.80;;;22.10;62.80;;;;;;5113778;28;20441;-84
2022/09/23 03:49:36;;;;;;;1.70;1.60;;;22.10;62.80;;;;;;5117422;28;20431;-83
2022/09/23 03:52:03;;;;;;;2.03;1.93;;;22.10;62.80;;;;;;5117983;28;20463;-83
2022/09/23 03:54:32;;;;;;;2.17;1.97;;;22.10;62.80;;;;;;5117970;28;20475;-83
2022/09/23 03:57:01;;;;;;;2.10;2.00;;;22.10;62.80;;;;;;5117908;28;20792;-83
2022/09/23 03:59:30;;;;;;;1.70;1.60;;;22.10;63.60;;;;;;5117951;28;20438;-85
2022/09/23 04:01:58;;;;;;;1.80;1.70;;;22.10;62.80;;;;;;5118038;28;20443;-85
2022/09/23 04:04:26;;;;;;;1.90;1.80;;;22.10;62.80;;;;;;5117573;28;20496;-85
2022/09/23 04:06:54;;;;;;;2.03;1.93;;;22.10;62.80;;;;;;5117409;28;20466;-83
2022/09/23 04:09:21;;;;;;;1.90;1.80;;;22.10;62.80;;;;;;5117366;28;20450;-84
2022/09/23 04:11:49;;;;;;;1.80;1.70;;;22.10;62.80;;;;;;5117364;28;20435;-83
2022/09/23 04:14:17;;;;;;;1.80;1.70;;;22.10;62.80;;;;;;5117475;28;20435;-84
2022/09/23 04:16:44;;;;;;;1.53;1.43;;;22.10;62.80;;;;;;5117593;28;20443;-84
2022/09/23 04:19:11;;;;;;;1.40;1.30;;;22.10;62.80;;;;;;5117102;28;20477;-83
2022/09/23 04:21:38;;;;;;;1.80;1.70;;;22.10;62.70;;;;;;5117736;28;20438;-84
2022/09/23 04:24:07;;;;;;;1.50;1.40;;;22.10;62.70;;;;;;5117334;28;20427;-84
2022/09/23 04:26:35;;;;;;;1.93;1.83;;;22.10;62.80;;;;;;5117172;28;20451;-83
2022/09/23 04:29:03;;;;;;;1.97;1.87;;;22.10;62.70;;;;;;5116980;28;20431;-83
2022/09/23 04:31:30;;;;;;;1.50;1.40;;;22.10;62.70;;;;;;5116985;28;20438;-83
2022/09/23 04:33:58;;;;;;;1.70;1.60;;;22.10;62.80;;;;;;5117316;28;20434;-85
2022/09/23 04:36:25;;;;;;;1.90;1.80;;;22.10;62.70;;;;;;5116761;28;20485;-84
2022/09/23 04:38:52;;;;;;;1.70;1.60;;;22.00;62.60;;;;;;5116942;28;20800;-83
2022/09/23 04:41:20;;;;;;;1.60;1.50;;;22.10;62.70;;;;;;5116826;28;20933;-84
2022/09/23 04:43:47;;;;;;;1.50;1.40;;;22.20;62.80;;;;;;5116598;28;20500;-84
2022/09/23 04:46:15;;;;;;;1.97;1.80;;;22.10;62.80;;;;;;5116626;28;20441;-83
2022/09/23 04:48:42;;;;;;;2.00;1.90;;;22.00;62.60;;;;;;5116547;28;20446;-83
2022/09/23 04:51:11;;;;;;;1.60;1.50;;;22.10;62.70;;;;;;5116692;28;20435;-83
2022/09/23 04:53:40;;;;;;;1.50;1.40;;;22.10;62.70;;;;;;5116464;28;20466;-83
2022/09/23 04:56:10;;;;;;;1.70;1.60;;;22.00;62.60;;;;;;5116492;28;20489;-83
2022/09/23 04:58:40;;;;;;;1.50;1.40;;;22.10;63.60;;;;;;5116336;28;20950;-83
2022/09/23 05:01:09;;;;;;;1.50;1.40;;;22.00;62.60;;;;;;5116116;28;20443;-83
2022/09/23 05:03:37;;;;;;;1.80;1.70;;;22.00;62.60;;;;;;5116328;28;20444;-83
2022/09/23 05:06:04;;;;;;;2.00;1.90;;;22.00;62.60;;;;;;5116531;28;20434;-83
2022/09/23 05:08:31;;;;;;;1.60;1.50;;;22.00;62.60;;;;;;5116416;28;20804;-83
2022/09/23 05:11:03;;;;;;;2.20;2.00;;;22.00;62.60;;;;;;5116457;28;20789;-84
2022/09/23 05:13:31;;;;;;;1.83;1.73;;;22.10;62.70;;;;;;5116389;28;20435;-85
2022/09/23 05:16:00;;;;;;;2.00;1.90;;;22.00;62.60;;;;;;5115981;28;20508;-84
2022/09/23 05:18:27;;;;;;;1.90;1.80;;;22.00;62.60;;;;;;5115748;28;20471;-83
2022/09/23 05:20:54;;;;;;;1.90;1.80;;;22.00;62.70;;;;;;5115093;28;20445;-83
2022/09/23 05:23:21;;;;;;;1.50;1.40;;;22.20;62.80;;;;;;5115560;28;20467;-83
2022/09/23 05:25:48;;;;;;;1.60;1.50;;;22.00;62.60;;;;;;5115579;28;20446;-85
2022/09/23 05:28:18;;;;;;;1.50;1.40;;;22.00;62.60;;;;;;5115806;28;20433;-84
2022/09/23 05:30:45;;;;;;;1.73;1.63;;;22.00;62.60;;;;;;5116227;28;20450;-87
2022/09/23 05:33:14;;;;;;;1.47;1.37;;;22.20;62.80;;;;;;5116044;28;20442;-84
2022/09/23 05:35:47;;;;;;;1.57;1.47;;;22.00;62.60;;;;;;5115724;28;20482;-84
2022/09/23 05:38:15;;;;;;;1.67;1.57;;;22.00;62.50;;;;;;5115640;28;20447;-84
2022/09/23 05:40:42;;;;;;;1.83;1.73;;;22.00;62.60;;;;;;5115803;28;20439;-84
2022/09/23 05:43:09;;;;;;;1.90;1.80;;;22.00;62.60;;;;;;5115670;28;20431;-84
2022/09/23 05:45:36;;;;;;;1.50;1.40;;;22.10;62.70;;;;;;5115639;28;20765;-84
2022/09/23 05:48:03;;;;;;;1.70;1.60;;;22.00;62.60;;;;;;5115654;28;20442;-84
2022/09/23 05:50:31;;;;;;;1.87;1.77;;;22.00;62.60;;;;;;5115520;28;20446;-84
2022/09/23 05:52:58;;;;;;;1.57;1.47;;;22.10;62.70;;;;;;5115288;28;20528;-84
2022/09/23 05:55:25;;;;;;;1.60;1.50;;;22.00;62.50;;;;;;5115639;28;20517;-84
2022/09/23 05:57:52;;;;;;;1.50;1.40;;;22.00;62.50;;;;;;5115425;28;20439;-86
2022/09/23 06:00:19;;;;;;;2.03;1.93;;;22.00;62.50;;;;;;5115309;28;20488;-84
2022/09/23 06:02:48;;;;;;;1.70;1.60;;;22.00;62.50;;;;;;5115643;28;20446;-84
2022/09/23 06:05:16;;;;;;;1.83;1.30;;;22.00;62.50;;;;;;5115423;28;20451;-84
2022/09/23 06:07:44;;;;;;;1.70;1.60;;;22.00;62.50;;;;;;5115245;28;20483;-86
2022/09/23 06:10:11;;;;;;;1.77;1.67;;;22.00;62.50;;;;;;5115300;28;20813;-84
2022/09/23 06:12:38;;;;;;;1.80;1.70;;;22.00;62.50;;;;;;5115103;28;20443;-84
2022/09/23 06:15:06;;;;;;;1.50;1.40;;;22.00;62.50;;;;;;5114976;28;20442;-83
2022/09/23 06:17:33;;;;;;;2.00;1.80;;;22.00;62.50;;;;;;5115064;28;20442;-84
2022/09/23 06:20:00;;;;;;;1.70;1.60;;;22.00;62.50;;;;;;5114724;28;20471;-84
2022/09/23 06:22:26;;;;;;;1.53;1.43;;;22.00;62.50;;;;;;5114848;28;20489;-85
2022/09/23 06:24:54;;;;;;;1.63;1.53;;;22.00;62.50;;;;;;5115087;28;20435;-84
2022/09/23 06:27:21;;;;;;;2.10;1.90;;;22.00;62.50;;;;;;5115134;28;20440;-84
2022/09/23 06:29:51;;;;;;;1.83;1.73;;;22.00;62.50;;;;;;5114714;28;20436;-85
2022/09/23 06:32:18;;;;;;;1.80;1.70;;;22.10;62.60;;;;;;5114534;28;20431;-84
2022/09/23 06:34:45;;;;;;;1.87;1.77;;;22.00;62.50;;;;;;5114871;28;20514;-86
2022/09/23 06:37:11;;;;;;;1.90;1.80;;;22.00;62.50;;;;;;5114720;28;20478;-85
2022/09/23 06:39:38;;;;;;;1.43;1.33;;;22.00;62.50;;;;;;5114598;28;20435;-84
2022/09/23 06:42:07;;;;;;;1.60;1.50;;;22.00;62.50;;;;;;5114627;28;20441;-85
2022/09/23 06:44:34;;;;;;;1.60;1.50;;;22.00;62.50;;;;;;5114454;28;20449;-84
2022/09/23 06:47:01;;;;;;;1.70;1.60;;;22.00;62.50;;;;;;5114358;28;20526;-85
2022/09/23 06:49:27;;;;;;;1.40;1.30;;;22.00;62.50;;;;;;5114319;28;20435;-85
2022/09/23 06:51:54;;;;;;;1.80;1.70;;;22.00;62.50;;;;;;5114114;28;20459;-84
2022/09/23 06:54:21;;;;;;;1.77;1.67;;;22.00;62.60;;;;;;5114519;28;20431;-84
2022/09/23 06:56:48;;;;;;;1.50;1.40;;;22.00;62.50;;;;;;5114154;28;20483;-85
2022/09/23 06:59:17;;;;;;;1.80;1.70;;;22.00;62.60;;;;;;5114081;28;20442;-84
2022/09/23 07:01:46;;;;;;;1.67;1.57;;;22.00;62.60;;;;;;5114313;28;20541;-84
2022/09/23 07:04:13;;;;;;;1.70;1.60;;;22.00;62.60;;;;;;5114263;28;20503;-84
2022/09/23 07:06:40;;;;;;;1.50;1.40;;;22.00;62.60;;;;;;5114173;28;20443;-85
2022/09/23 07:09:09;;;;;;;1.30;1.20;;;22.00;62.60;;;;;;5114002;28;20909;-87
2022/09/23 07:11:36;;;;;;;1.77;1.63;;;22.00;62.60;;;;;;5114058;28;20431;-84
2022/09/23 07:14:03;;;;;;;1.67;1.57;;;22.00;62.70;;;;;;5114023;28;20435;-84
2022/09/23 07:16:32;;;;;;;1.67;1.57;;;22.00;62.60;;;;;;5114186;28;20482;-84
2022/09/23 07:18:59;;;;;;;2.00;1.90;;;22.00;62.70;;;;;;5113754;28;20470;-84
2022/09/23 07:21:26;;;;;;;1.70;1.60;;;22.00;62.70;;;;;;5113896;28;20442;-84
2022/09/23 07:23:55;;;;;;;1.60;1.50;;;22.00;62.70;;;;;;5113288;28;20439;-84
2022/09/23 07:26:22;;;;;;;1.60;1.50;;;22.00;62.70;;;;;;5114313;28;20769;-84
2022/09/23 07:28:54;;;;;;;1.77;1.67;;;22.00;62.70;;;;;;5113895;28;20472;-85
2022/09/23 07:31:21;;;;;;;1.50;1.40;;;22.00;62.70;;;;;;5113960;28;20435;-84
2022/09/23 07:33:49;;;;;;;1.40;1.30;;;22.00;62.80;;;;;;5114068;28;20435;-84
2022/09/23 07:36:18;;;;;;;1.40;1.30;;;22.00;62.80;;;;;;5113781;28;20830;-86
2022/09/23 07:38:46;;;;;;;1.40;1.30;;;22.00;62.80;;;;;;5113936;28;20439;-84
2022/09/23 07:41:15;;;;;;;1.63;1.53;;;22.10;62.80;;;;;;5114131;28;20439;-84
2022/09/23 07:43:43;;;;;;;2.73;1.90;;;22.00;62.70;;;;;;5113930;28;20439;-84
2022/09/23 07:46:13;;;;;;;1.70;1.60;;;22.00;62.70;;;;;;5113693;28;20446;-84
2022/09/23 07:48:40;;;;;;;1.50;1.40;;;22.00;62.70;;;;;;5113705;28;20518;-84
2022/09/23 07:51:10;;;;;;;1.37;1.20;;;22.00;62.80;;;;;;5113825;28;20796;-83
2022/09/23 07:53:37;;;;;;;1.60;1.50;;;22.10;62.80;;;;;;5113575;28;20451;-83
2022/09/23 07:56:05;;;;;;;1.47;1.37;;;22.10;62.80;;;;;;5113449;28;20479;-83
2022/09/23 07:58:33;;;;;;;1.60;1.50;;;22.10;62.80;;;;;;5113782;28;20492;-83
2022/09/23 08:01:05;;;;;;;1.30;1.20;;;22.10;62.80;;;;;;5113751;28;20512;-83
2022/09/23 08:03:32;;;;;;;1.37;1.27;;;22.10;62.80;;;;;;5113597;28;20461;-83
2022/09/23 08:06:11;;;;;;;1.93;1.83;;;22.10;62.90;;;;;;5113531;28;20442;-83
2022/09/23 08:08:42;;;;;;;1.50;1.40;;;22.10;62.80;;;;;;5113713;28;20443;-83
2022/09/23 08:11:10;;;;;;;1.73;1.20;;;22.10;62.90;;;;;;5114132;28;20438;-85
2022/09/23 08:13:37;;;;;;;1.60;1.50;;;22.10;62.90;;;;;;5114415;28;20925;-84
2022/09/23 08:16:04;;;;;;;1.80;1.70;;;22.20;63.00;;;;;;5113489;28;20483;-84
2022/09/23 08:18:31;;;;;;;1.60;1.50;;;22.10;62.90;;;;;;5114392;28;21054;-84
2022/09/23 08:20:57;;;;;;;1.57;1.47;;;22.10;62.90;;;;;;5113405;28;20525;-84
2022/09/23 08:23:26;;;;;;;1.40;1.30;;;22.10;62.90;;;;;;5113417;28;20466;-84
2022/09/23 08:25:58;;;;;;;1.60;1.50;;;22.10;62.90;;;;;;5113318;28;20457;-86
2022/09/23 08:28:25;;;;;;;1.50;1.40;;;22.10;62.90;;;;;;5113422;28;20481;-84
2022/09/23 08:30:52;;;;;;;1.63;1.53;;;22.00;62.80;;;;;;5113217;28;20446;-83
2022/09/23 08:33:19;;;;;;;1.40;1.30;;;22.10;62.90;;;;;;5113595;28;20789;-83
2022/09/23 08:35:46;;;;;;;1.33;1.23;;;22.10;62.90;;;;;;5116908;28;20437;-84
2022/09/23 08:38:13;;;;;;;1.30;1.20;;;22.10;62.90;;;;;;5117113;28;20806;-85
2022/09/23 08:40:46;;;;;;;1.50;1.40;;;22.10;62.90;;;;;;5116804;28;20443;-83
2022/09/23 08:43:20;;;;;;;1.73;1.63;;;22.10;62.90;;;;;;5117175;28;20828;-84
2022/09/23 08:45:49;;;;;;;1.20;1.10;;;22.20;63.10;;;;;;5117188;28;20809;-84
2022/09/23 08:48:21;;;;;;;1.50;1.40;;;22.10;62.90;;;;;;5116776;28;21022;-84
2022/09/23 08:50:53;;;;;;;1.40;1.30;;;22.10;62.90;;;;;;5117461;28;20443;-84
2022/09/23 08:53:25;;;;;;;1.40;1.30;;;22.10;63.00;;;;;;5116663;28;20459;-83
2022/09/23 08:55:55;;;;;;;1.37;1.27;;;22.10;62.90;;;;;;5116975;28;20503;-84
2022/09/23 08:58:33;;;;;;;1.23;1.13;;;22.10;62.90;;;;;;5116614;28;21333;-83
2022/09/23 09:01:09;;;;;;;1.70;1.60;;;22.10;62.90;;;;;;5116670;28;20537;-83
2022/09/23 09:03:42;;;;;;;1.37;1.27;;;22.10;62.90;;;;;;5116943;28;20431;-83
2022/09/23 09:06:16;;;;;;;1.43;1.33;;;22.10;62.90;;;;;;5116939;28;20458;-84
2022/09/23 09:08:45;;;;;;;1.30;1.20;;;22.10;62.90;;;;;;5116462;28;20930;-84
2022/09/23 09:11:15;;;;;;;2.03;1.27;;;22.10;63.00;;;;;;5116453;28;20466;-83
2022/09/23 09:13:51;;;;;;;1.50;1.40;;;22.10;62.90;;;;;;5116731;28;20443;-86
2022/09/23 09:16:38;;;;;;;1.30;1.20;;;22.20;63.10;;;;;;5116326;28;20486;-83
2022/09/23 09:19:15;;;;;;;1.30;1.20;;;22.10;62.90;;;;;;5116243;28;20802;-83
2022/09/23 09:21:46;;;;;;;1.30;1.20;;;22.10;63.00;;;;;;5116173;28;20506;-83
2022/09/23 09:24:18;;;;;;;1.30;1.20;;;22.10;63.00;;;;;;5116290;28;20435;-83
2022/09/23 09:26:46;;;;;;;1.30;1.20;;;22.10;63.00;;;;;;5116291;28;20432;-83
2022/09/23 09:29:17;;;;;;;1.27;1.17;;;22.10;63.00;;;;;;5115953;28;20435;-85
2022/09/23 09:31:46;;;;;;;1.40;1.30;;;22.10;63.00;;;;;;5116122;28;20443;-85
2022/09/23 09:34:22;;;;;;;1.30;1.20;;;22.10;63.00;;;;;;5115948;28;20435;-83
2022/09/23 09:36:58;;;;;;;1.40;1.20;;;22.10;63.00;;;;;;5116186;28;20857;-83
2022/09/23 09:39:26;;;;;;;1.40;1.30;;;22.10;63.00;;;;;;5116199;28;20796;-83
2022/09/23 09:41:57;;;;;;;1.13;1.03;;;22.10;63.00;;;;;;5115891;28;20448;-84
2022/09/23 09:44:28;;;;;;;1.40;1.30;;;22.10;63.00;;;;;;5115735;28;20867;-83
2022/09/23 09:47:08;;;;;;;1.43;1.33;;;22.10;63.00;;;;;;5115121;28;20475;-84
2022/09/23 09:49:41;;;;;;;1.30;0.97;;;22.10;63.00;;;;;;5115675;28;20435;-85
2022/09/23 09:52:21;;;;;;;1.40;1.30;;;22.10;63.00;;;;;;5115534;28;20992;-85
2022/09/23 09:54:48;;;;;;;1.50;1.40;;;22.10;63.00;;;;;;5115623;28;20443;-83
2022/09/23 09:57:30;;;;;;;1.10;1.00;;;22.10;63.10;;;;;;5115402;28;20482;-85
2022/09/23 09:59:57;;;;;;;1.30;1.13;;;22.10;63.00;;;;;;5115326;28;20880;-85
2022/09/23 10:02:30;;;;;;;1.30;1.20;;;22.10;63.00;;;;;;5115381;28;20458;-85
2022/09/23 10:05:01;;;;;;;2.17;1.17;;;22.10;63.00;;;;;;5115143;28;20442;-84
2022/09/23 10:07:30;;;;;;;1.30;1.20;;;22.10;63.00;;;;;;5115307;28;20446;-83
2022/09/23 10:10:00;;;;;;;1.40;1.30;;;22.10;63.00;;;;;;5115128;28;20430;-83
2022/09/23 10:12:42;;;;;;;1.33;1.23;;;22.10;63.10;;;;;;5115025;28;20447;-85
2022/09/23 10:15:27;;;;;;;1.33;1.23;;;22.10;63.10;;;;;;5115372;28;20795;-84
2022/09/23 10:17:54;;;;;;;1.20;1.10;;;22.20;63.10;;;;;;5115132;28;20486;-85
2022/09/23 10:20:21;;;;;;;1.20;1.10;;;22.10;63.10;;;;;;5115174;28;20466;-84
2022/09/23 10:22:47;;;;;;;1.40;1.30;;;22.10;63.10;;;;;;5114699;28;20814;-83
2022/09/23 10:25:20;;;;;;;1.10;1.00;;;22.10;63.10;;;;;;5114957;28;20439;-85
2022/09/23 10:27:48;;;;;;;1.30;1.20;;;22.10;63.10;;;;;;5114848;28;20438;-83
2022/09/23 10:30:21;;;;;;;1.10;1.00;;;22.10;63.10;;;;;;5114717;28;20443;-83
2022/09/23 10:32:49;;;;;;;1.47;1.37;;;22.20;64.10;;;;;;5114778;28;20782;-83
2022/09/23 10:35:20;;;;;;;1.33;1.23;;;22.10;63.10;;;;;;5114748;28;20497;-85
2022/09/23 10:37:49;;;;;;;1.13;1.03;;;22.20;63.20;;;;;;5114511;28;20997;-84
2022/09/23 10:49:27;;;;;;;1.20;1.10;;;22.30;63.40;;;;;;5114598;28;20478;-84
2022/09/23 10:52:03;;;;;;;1.10;1.00;;;22.10;63.20;;;;;;5114597;28;20458;-83
2022/09/23 10:54:40;;;;;;;1.20;1.10;;;22.10;63.20;;;;;;5114344;28;20466;-84
2022/09/23 11:00:09;;;;;;;1.10;1.00;;;22.10;63.10;;;;;;5112943;28;20431;-85
2022/09/23 11:02:55;;;;;;;1.10;1.00;;;22.10;63.10;;;;;;5114018;28;20496;-84
2022/09/23 11:05:35;;;;;;;1.20;1.10;;;22.10;63.00;;;;;;5114068;28;20474;-83
2022/09/23 11:08:26;;;;;;;1.47;1.10;;;22.10;63.40;;;;;;5114365;28;20439;-83
2022/09/23 11:11:17;;;;;;;1.00;0.90;;;22.20;63.20;;;;;;5114329;28;20430;-84
2022/09/23 11:14:02;;;;;;;1.20;1.00;;;22.10;63.00;;;;;;5114017;28;20531;-84
2022/09/23 11:16:44;;;;;;;1.50;1.30;;;22.10;63.10;;;;;;5114121;28;20443;-83
2022/09/23 11:19:31;;;;;;;1.40;1.30;;;22.20;63.30;;;;;;5113819;28;20463;-84
2022/09/23 11:22:09;;;;;;;1.20;1.10;;;22.20;63.20;;;;;;5114022;28;20501;-84
2022/09/23 11:25:08;;;;;;;0.80;0.80;;;22.10;63.00;;;;;;5114175;28;20435;-83
2022/09/23 11:27:53;;;;;;;1.23;1.13;;;22.20;63.10;;;;;;5114344;28;20439;-83
2022/09/23 11:30:20;;;;;;;1.00;1.00;;;22.20;63.20;;;;;;5114133;28;20517;-86
2022/09/23 11:33:12;;;;;;;1.40;1.00;;;22.10;63.10;;;;;;5113800;28;20445;-86
2022/09/23 11:35:46;;;;;;;1.70;1.60;;;22.20;63.10;;;;;;5114162;28;20435;-86
2022/09/23 11:38:20;;;;;;;1.27;1.17;;;22.10;63.00;;;;;;5113549;28;21039;-85
2022/09/23 11:40:53;;;;;;;1.10;1.00;;;22.10;63.00;;;;;;5113814;28;20474;-87
2022/09/23 11:43:23;;;;;;;1.27;1.17;;;22.10;63.00;;;;;;5113973;28;20442;-87
2022/09/23 11:45:57;;;;;;;1.10;1.00;;;22.10;63.00;;;;;;5114035;28;20439;-86
2022/09/23 11:48:30;;;;;;;1.00;0.90;;;22.20;63.20;;;;;;5113942;28;20447;-85
2022/09/23 11:51:00;;;;;;;1.30;1.20;;;22.20;63.20;;;;;;5113632;28;20495;-84
2022/09/23 11:53:36;;;;;;;1.17;1.07;;;22.20;63.10;;;;;;5117100;28;20455;-82
2022/09/23 11:56:09;;;;;;;1.30;1.20;;;22.20;63.10;;;;;;5118789;28;20941;-84
2022/09/23 11:58:41;;;;;;;1.10;1.00;;;22.20;63.10;;;;;;5113850;28;20486;-85
2022/09/23 12:01:17;;;;;;;1.20;1.10;;;22.20;63.10;;;;;;5113712;28;20435;-86
2022/09/23 12:03:54;;;;;;;1.40;1.30;;;22.20;63.10;;;;;;5113437;28;20427;-86
2022/09/23 12:06:25;;;;;;;1.43;1.33;;;22.20;63.10;;;;;;5115625;28;20435;-84
2022/09/23 12:08:57;;;;;;;1.00;0.90;;;22.30;63.20;;;;;;5114940;28;20525;-87
2022/09/23 12:11:30;;;;;;;1.83;1.00;;;22.20;63.10;;;;;;5117671;28;20434;-84
2022/09/23 12:14:18;;;;;;;1.20;1.10;;;22.20;63.10;;;;;;5117454;28;20801;-86
2022/09/23 12:17:03;;;;;;;1.30;1.10;;;22.20;63.10;;;;;;5117334;28;20441;-84
2022/09/23 12:19:53;;;;;;;0.83;0.83;;;22.20;63.10;;;;;;5117327;28;20473;-87
2022/09/23 12:22:35;;;;;;;1.10;1.00;;;22.20;63.10;;;;;;5117398;28;20898;-84
2022/09/23 12:25:20;;;;;;;1.00;0.90;;;22.20;63.10;;;;;;5117491;28;20790;-85
2022/09/23 12:27:50;;;;;;;1.10;1.00;;;22.20;63.10;;;;;;5117131;28;20447;-84
2022/09/23 12:30:20;;;;;;;1.03;0.93;;;22.20;63.10;;;;;;5117531;28;20427;-85
2022/09/23 12:32:47;;;;;;;1.10;1.00;;;22.20;63.20;;;;;;5117344;28;20448;-86
2022/09/23 12:35:28;;;;;;;1.00;0.87;;;22.20;63.20;;;;;;5117344;28;20430;-84
2022/09/23 12:37:54;;;;;;;1.10;1.00;;;22.20;63.10;;;;;;5116347;28;20486;-83
2022/09/23 12:40:27;;;;;;;0.97;0.87;;;22.20;63.20;;;;;;5116807;28;20439;-83
2022/09/23 12:42:54;;;;;;;1.03;0.93;;;22.20;63.10;;;;;;5116999;28;20470;-86
2022/09/23 12:45:40;;;;;;;1.07;0.97;;;22.20;63.20;;;;;;5116144;28;20435;-83
2022/09/23 12:48:26;;;;;;;1.20;1.10;;;22.20;63.20;;;;;;5116756;28;20963;-84
2022/09/23 12:50:58;;;;;;;1.17;1.07;;;22.20;63.10;;;;;;5115767;28;20801;-85
2022/09/23 12:53:59;;;;;;;1.03;0.93;;;22.20;63.20;;;;;;5116467;28;20456;-84
2022/09/23 12:56:48;;;;;;;1.20;1.10;;;22.20;63.10;;;;;;5098762;28;20449;-83
2022/09/23 12:59:25;;;;;;;1.27;1.17;;;22.20;63.20;;;;;;5116015;28;20485;-84
2022/09/23 13:01:52;;;;;;;1.10;1.00;;;22.20;63.20;;;;;;5116370;28;20439;-85
2022/09/23 13:07:18;;;;;;;0.93;0.83;;;22.20;63.20;;;;;;5116423;28;20425;-84
2022/09/23 13:09:49;;;;;;;1.00;0.90;;;22.30;63.40;;;;;;5115873;28;20461;-84
2022/09/23 13:12:20;;;;;;;1.10;0.90;;;22.20;63.30;;;;;;5116191;28;20439;-85
2022/09/23 13:14:50;;;;;;;1.00;0.90;;;22.20;63.30;;;;;;5115959;28;20436;-84
2022/09/23 13:17:30;;;;;;;1.00;0.90;;;22.20;63.20;;;;;;5116110;28;20487;-82
2022/09/23 13:20:03;;;;;;;0.80;0.80;;;22.20;63.20;;;;;;5115455;28;20490;-84
2022/09/23 13:22:57;;;;;;;1.07;0.97;;;22.20;63.30;;;;;;5115863;28;20456;-84
2022/09/23 13:25:26;;;;;;;1.07;0.97;;;22.20;63.20;;;;;;5115932;28;20435;-85
2022/09/23 13:27:55;;;;;;;1.10;1.00;;;22.20;63.30;;;;;;5115714;28;20443;-86
2022/09/23 13:30:25;;;;;;;1.07;0.90;;;22.20;63.30;;;;;;5115913;28;20439;-85